Time;durP1;ratioP1;P1;durP2;ratioP2;P2;SDS_P1;SDS_P2;PMS_P1;PMS_P2;Temp;Humidity;BMP_temperature;BMP_pressure;BME280_temperature;BME280_humidity;BME280_pressure;Samples;Min_cycle;Max_cycle;Signal;HPM_P1;HPM_P2
2023/12/07 00:01:43;;;;;;;7.40;4.57;;;;;;;;;;6316255;22;20404;-90
2023/12/07 00:04:09;;;;;;;6.90;4.20;;;;;;;;;;6314111;22;20690;-90
2023/12/07 00:06:35;;;;;;;6.03;4.23;;;;;;;;;;6312994;22;20395;-91
2023/12/07 00:09:01;;;;;;;7.60;4.50;;;;;;;;;;6316848;22;20741;-91
2023/12/07 00:11:31;;;;;;;6.23;4.50;;;;;;;;;;6315457;22;20392;-91
2023/12/07 00:13:57;;;;;;;6.77;4.00;;;;;;;;;;6319908;22;20680;-90
2023/12/07 00:16:23;;;;;;;6.73;5.17;;;;;;;;;;6313362;22;20389;-91
2023/12/07 00:18:49;;;;;;;6.27;4.97;;;;;;;;;;6318803;22;20371;-90
2023/12/07 00:21:15;;;;;;;5.63;4.30;;;;;;;;;;6316326;22;20440;-90
2023/12/07 00:23:41;;;;;;;5.53;4.13;;;;;;;;;;6311834;22;20367;-90
2023/12/07 00:26:07;;;;;;;4.40;4.00;;;;;;;;;;6313759;22;20398;-91
2023/12/07 00:28:33;;;;;;;6.63;4.03;;;;;;;;;;6311068;22;20423;-92
2023/12/07 00:30:59;;;;;;;6.30;4.43;;;;;;;;;;6317214;22;20383;-90
2023/12/07 00:36:29;;;;;;;6.17;4.40;;;;;;;;;;6346721;22;20330;-91
2023/12/07 00:38:55;;;;;;;3.97;3.20;;;;;;;;;;6315377;22;20851;-91
2023/12/07 00:41:21;;;;;;;4.60;4.00;;;;;;;;;;6314493;22;20887;-90
2023/12/07 00:43:47;;;;;;;4.50;2.87;;;;;;;;;;6313755;22;20394;-90
2023/12/07 01:32:46;;;;;;;5.80;4.60;;;;;;;;;;6279165;22;20348;-91
2023/12/07 01:35:12;;;;;;;4.10;3.80;;;;;;;;;;6253432;22;20385;-91
2023/12/07 01:37:38;;;;;;;5.77;3.37;;;;;;;;;;6254655;22;20377;-90
2023/12/07 01:40:10;;;;;;;5.03;3.53;;;;;;;;;;6252980;22;20918;-90
2023/12/07 01:42:37;;;;;;;4.87;3.97;;;;;;;;;;6255197;22;20879;-90
2023/12/07 01:45:03;;;;;;;4.50;4.00;;;;;;;;;;6254354;22;20380;-90
2023/12/07 01:47:29;;;;;;;4.43;3.77;;;;;;;;;;6254994;22;20415;-90
2023/12/07 01:49:55;;;;;;;7.97;3.50;;;;;;;;;;6254467;22;20369;-90
2023/12/07 01:52:22;;;;;;;4.43;3.90;;;;;;;;;;6255774;22;20447;-93
2023/12/07 01:54:48;;;;;;;6.10;3.63;;;;;;;;;;6250987;22;20381;-91
2023/12/07 01:57:14;;;;;;;3.83;3.40;;;;;;;;;;6257973;22;20453;-91
2023/12/07 01:59:40;;;;;;;4.40;3.37;;;;;;;;;;6326753;22;20387;-90
2023/12/07 02:02:06;;;;;;;4.10;3.70;;;;;;;;;;6318007;22;20470;-92
2023/12/07 02:04:32;;;;;;;5.57;3.37;;;;;;;;;;6315884;22;20466;-89
2023/12/07 02:06:58;;;;;;;4.60;3.40;;;;;;;;;;6319036;22;20383;-90
2023/12/07 02:09:24;;;;;;;3.37;3.07;;;;;;;;;;6316465;22;20514;-90
2023/12/07 02:11:50;;;;;;;4.30;3.90;;;;;;;;;;6321013;22;20379;-90
2023/12/07 02:14:18;;;;;;;4.37;3.97;;;;;;;;;;6316453;22;20394;-91
2023/12/07 02:16:45;;;;;;;7.47;5.33;;;;;;;;;;6317668;22;20879;-90
2023/12/07 02:19:11;;;;;;;5.83;3.57;;;;;;;;;;6317769;22;20468;-90
2023/12/07 02:21:47;;;;;;;3.93;3.37;;;;;;;;;;6344144;22;20371;-90
2023/12/07 02:24:13;;;;;;;3.27;2.90;;;;;;;;;;6316741;22;20379;-89
2023/12/07 02:26:40;;;;;;;4.80;3.73;;;;;;;;;;6318376;22;20375;-90
2023/12/07 02:29:06;;;;;;;4.67;3.73;;;;;;;;;;6340733;22;20424;-91
2023/12/07 02:31:32;;;;;;;6.23;3.37;;;;;;;;;;6315155;22;20464;-90
2023/12/07 02:33:58;;;;;;;5.27;3.63;;;;;;;;;;6343850;22;20360;-92
2023/12/07 02:36:25;;;;;;;5.50;3.93;;;;;;;;;;6317248;22;20387;-90
2023/12/07 02:38:51;;;;;;;4.10;3.23;;;;;;;;;;6316967;22;20374;-90
2023/12/07 02:41:18;;;;;;;3.27;2.97;;;;;;;;;;6316334;22;20482;-91
2023/12/07 02:43:44;;;;;;;6.83;3.80;;;;;;;;;;6317280;22;20711;-91
2023/12/07 02:46:10;;;;;;;4.40;3.13;;;;;;;;;;6313672;22;20378;-92
2023/12/07 02:48:36;;;;;;;3.80;3.10;;;;;;;;;;6315725;22;20419;-90
2023/12/07 02:51:02;;;;;;;4.47;3.77;;;;;;;;;;6315265;22;20372;-91
2023/12/07 02:53:28;;;;;;;6.37;3.63;;;;;;;;;;6318219;22;20411;-90
2023/12/07 02:55:54;;;;;;;3.60;2.80;;;;;;;;;;6342035;22;20820;-90
2023/12/07 02:58:20;;;;;;;4.50;2.93;;;;;;;;;;6318988;22;20414;-91
2023/12/07 03:00:46;;;;;;;3.87;3.10;;;;;;;;;;6315315;22;20387;-90
2023/12/07 03:03:12;;;;;;;3.30;3.00;;;;;;;;;;6318057;22;20364;-90
2023/12/07 03:05:38;;;;;;;3.80;3.00;;;;;;;;;;6316061;22;20403;-91
2023/12/07 03:08:04;;;;;;;5.03;2.80;;;;;;;;;;6316809;22;20425;-90
2023/12/07 03:10:30;;;;;;;4.87;3.30;;;;;;;;;;6316292;22;20422;-90
2023/12/07 03:12:57;;;;;;;4.30;3.87;;;;;;;;;;6316338;22;20383;-90
2023/12/07 03:15:23;;;;;;;6.03;4.00;;;;;;;;;;6284633;22;20447;-90
2023/12/07 03:17:49;;;;;;;4.20;3.53;;;;;;;;;;6283427;22;20406;-91
2023/12/07 03:20:15;;;;;;;5.40;3.50;;;;;;;;;;6283067;22;20919;-90
2023/12/07 03:22:42;;;;;;;4.23;3.83;;;;;;;;;;6283077;22;20402;-89
2023/12/07 03:25:08;;;;;;;6.27;4.07;;;;;;;;;;6284539;22;20395;-91
2023/12/07 03:27:34;;;;;;;5.43;3.97;;;;;;;;;;6281736;22;20515;-91
2023/12/07 03:30:00;;;;;;;4.80;3.13;;;;;;;;;;6285346;22;20439;-93
2023/12/07 03:32:26;;;;;;;5.03;3.40;;;;;;;;;;6280836;22;20496;-91
2023/12/07 03:34:52;;;;;;;3.30;3.00;;;;;;;;;;6283910;22;20471;-91
2023/12/07 03:37:18;;;;;;;7.23;4.50;;;;;;;;;;6283354;22;20921;-91
2023/12/07 03:39:44;;;;;;;5.50;3.43;;;;;;;;;;6282345;22;20365;-90
2023/12/07 03:42:10;;;;;;;5.73;4.00;;;;;;;;;;6283881;22;20749;-90
2023/12/07 03:44:36;;;;;;;7.43;3.40;;;;;;;;;;6283606;22;20381;-91
2023/12/07 03:47:02;;;;;;;4.20;3.40;;;;;;;;;;6330351;22;20424;-90
2023/12/07 03:49:31;;;;;;;5.17;3.40;;;;;;;;;;6314673;22;20411;-91
2023/12/07 03:51:57;;;;;;;6.27;2.90;;;;;;;;;;6318069;22;20440;-90
2023/12/07 03:54:23;;;;;;;7.50;4.10;;;;;;;;;;6315043;22;20894;-91
2023/12/07 03:56:50;;;;;;;4.53;3.70;;;;;;;;;;6319806;22;20787;-90
2023/12/07 03:59:16;;;;;;;5.47;4.17;;;;;;;;;;6340987;22;20360;-91
2023/12/07 04:01:42;;;;;;;5.40;4.03;;;;;;;;;;6318731;22;20920;-90
2023/12/07 04:04:08;;;;;;;3.17;2.53;;;;;;;;;;6316099;22;20425;-90
2023/12/07 04:06:34;;;;;;;11.70;6.20;;;;;;;;;;6316181;22;20387;-90
2023/12/07 04:09:00;;;;;;;4.73;4.23;;;;;;;;;;6315949;22;20407;-92
2023/12/07 04:11:26;;;;;;;4.67;4.20;;;;;;;;;;6318308;22;20468;-91
2023/12/07 04:13:52;;;;;;;4.20;3.10;;;;;;;;;;6314917;22;20452;-91
2023/12/07 04:16:18;;;;;;;7.17;4.70;;;;;;;;;;6316911;22;20372;-90
2023/12/07 04:18:44;;;;;;;4.10;3.60;;;;;;;;;;6313200;22;20375;-90
2023/12/07 04:21:10;;;;;;;6.00;4.43;;;;;;;;;;6313188;22;20384;-91
2023/12/07 04:23:36;;;;;;;4.83;4.30;;;;;;;;;;6314189;22;20416;-90
2023/12/07 04:26:02;;;;;;;4.03;3.63;;;;;;;;;;6314956;22;20458;-89
2023/12/07 04:28:28;;;;;;;7.80;5.20;;;;;;;;;;6339686;22;20414;-90
2023/12/07 04:30:54;;;;;;;7.97;4.13;;;;;;;;;;6320328;22;20428;-88
2023/12/07 04:33:20;;;;;;;7.43;4.47;;;;;;;;;;6314932;22;20376;-90
2023/12/07 04:35:47;;;;;;;5.30;4.40;;;;;;;;;;6313678;22;20549;-90
2023/12/07 04:38:13;;;;;;;6.47;5.00;;;;;;;;;;6315712;22;20380;-90
2023/12/07 04:40:39;;;;;;;9.17;5.77;;;;;;;;;;6315034;22;20390;-91
2023/12/07 04:43:05;;;;;;;6.23;4.37;;;;;;;;;;6315456;22;20438;-91
2023/12/07 04:45:31;;;;;;;10.27;4.40;;;;;;;;;;6312991;22;20440;-90
2023/12/07 04:47:57;;;;;;;7.10;4.57;;;;;;;;;;6341639;22;20411;-90
2023/12/07 04:50:23;;;;;;;5.77;4.40;;;;;;;;;;6313374;22;20382;-91
2023/12/07 04:52:49;;;;;;;5.27;3.83;;;;;;;;;;6315549;22;20379;-90
2023/12/07 04:55:15;;;;;;;5.83;3.90;;;;;;;;;;6312976;22;20415;-91
2023/12/07 04:57:41;;;;;;;7.87;6.23;;;;;;;;;;6315508;22;20426;-90
2023/12/07 05:00:09;;;;;;;4.43;4.03;;;;;;;;;;6313804;22;20379;-90
2023/12/07 05:02:35;;;;;;;3.83;3.53;;;;;;;;;;6321315;22;20383;-91
2023/12/07 05:05:01;;;;;;;6.30;4.77;;;;;;;;;;6316205;22;20861;-91
2023/12/07 05:07:27;;;;;;;5.80;4.23;;;;;;;;;;6317857;22;20379;-90
2023/12/07 05:09:53;;;;;;;8.90;4.27;;;;;;;;;;6315610;22;20375;-91
2023/12/07 05:12:19;;;;;;;5.93;4.77;;;;;;;;;;6317793;22;20367;-90
2023/12/07 05:14:45;;;;;;;11.50;5.00;;;;;;;;;;6316322;22;20378;-92
2023/12/07 05:17:11;;;;;;;5.73;5.17;;;;;;;;;;6318304;22;20368;-90
2023/12/07 05:19:37;;;;;;;9.43;5.13;;;;;;;;;;6317477;22;20405;-91
2023/12/07 05:22:03;;;;;;;7.33;5.10;;;;;;;;;;6317873;22;20379;-90
2023/12/07 05:24:31;;;;;;;8.63;5.13;;;;;;;;;;6317686;22;20379;-90
2023/12/07 05:26:57;;;;;;;5.97;4.47;;;;;;;;;;6344341;22;20409;-91
2023/12/07 05:29:23;;;;;;;6.90;5.60;;;;;;;;;;6316836;22;20423;-90
2023/12/07 05:31:52;;;;;;;5.87;4.43;;;;;;;;;;6318582;22;20379;-90
2023/12/07 05:34:18;;;;;;;6.63;4.50;;;;;;;;;;6343276;22;20375;-91
2023/12/07 05:36:46;;;;;;;6.60;5.90;;;;;;;;;;6319020;22;20375;-90
2023/12/07 05:39:12;;;;;;;8.90;5.60;;;;;;;;;;6317510;22;20862;-91
2023/12/07 05:41:38;;;;;;;6.43;4.30;;;;;;;;;;6317252;22;20407;-90
2023/12/07 05:44:04;;;;;;;6.93;5.30;;;;;;;;;;6319239;22;20466;-90
2023/12/07 05:46:31;;;;;;;6.43;5.23;;;;;;;;;;6316991;22;20391;-90
2023/12/07 05:48:57;;;;;;;7.63;5.77;;;;;;;;;;6318044;22;20427;-92
2023/12/07 05:51:23;;;;;;;8.23;5.77;;;;;;;;;;6315414;22;20386;-91
2023/12/07 05:53:49;;;;;;;6.60;5.03;;;;;;;;;;6320306;22;20743;-90
2023/12/07 05:56:19;;;;;;;6.97;4.27;;;;;;;;;;6318951;22;20458;-90
2023/12/07 05:58:45;;;;;;;8.80;4.53;;;;;;;;;;6319591;22;20387;-89
2023/12/07 06:01:11;;;;;;;6.83;5.20;;;;;;;;;;6320078;22;20386;-91
2023/12/07 06:03:37;;;;;;;6.27;4.77;;;;;;;;;;6318883;22;20383;-91
2023/12/07 06:06:03;;;;;;;9.37;3.87;;;;;;;;;;6319010;22;20390;-90
2023/12/07 06:08:29;;;;;;;7.73;5.90;;;;;;;;;;6323236;22;20447;-90
2023/12/07 06:10:56;;;;;;;10.40;5.57;;;;;;;;;;6319693;22;20735;-90
2023/12/07 06:13:22;;;;;;;6.47;4.53;;;;;;;;;;6319901;22;20415;-89
2023/12/07 06:15:48;;;;;;;7.20;4.80;;;;;;;;;;6316839;22;20444;-89
2023/12/07 06:18:14;;;;;;;7.67;4.97;;;;;;;;;;6318759;22;20380;-89
2023/12/07 06:20:41;;;;;;;15.40;6.30;;;;;;;;;;6316541;22;20383;-88
2023/12/07 06:23:12;;;;;;;8.60;4.37;;;;;;;;;;6317975;22;20376;-90
2023/12/07 06:25:38;;;;;;;6.10;4.10;;;;;;;;;;6317194;22;20360;-89
2023/12/07 06:28:04;;;;;;;6.17;4.43;;;;;;;;;;6320287;22;20842;-88
2023/12/07 06:30:30;;;;;;;6.30;4.37;;;;;;;;;;6318730;22;20359;-92
2023/12/07 06:32:56;;;;;;;8.33;5.50;;;;;;;;;;6318725;22;20376;-91
2023/12/07 06:35:22;;;;;;;7.10;4.30;;;;;;;;;;6316871;22;20374;-90
2023/12/07 06:37:48;;;;;;;8.07;5.37;;;;;;;;;;6322697;22;20387;-87
2023/12/07 06:40:14;;;;;;;10.07;5.67;;;;;;;;;;6289867;22;20389;-88
2023/12/07 06:42:43;;;;;;;6.30;5.00;;;;;;;;;;6286788;22;20451;-91
2023/12/07 06:45:13;;;;;;;9.37;5.13;;;;;;;;;;6288701;22;20712;-91
2023/12/07 06:47:39;;;;;;;6.00;4.97;;;;;;;;;;6286275;22;20387;-92
2023/12/07 06:50:08;;;;;;;5.00;4.33;;;;;;;;;;6291674;22;20373;-92
2023/12/07 06:52:34;;;;;;;7.43;4.77;;;;;;;;;;6286176;22;20519;-93
2023/12/07 06:55:00;;;;;;;10.20;5.63;;;;;;;;;;6289135;22;20407;-92
2023/12/07 06:57:27;;;;;;;7.60;5.97;;;;;;;;;;6251941;22;20386;-90
2023/12/07 06:59:53;;;;;;;8.33;5.73;;;;;;;;;;6252751;23;20370;-92
2023/12/07 07:02:19;;;;;;;12.20;5.13;;;;;;;;;;6227924;23;20390;-91
2023/12/07 07:04:48;;;;;;;6.93;4.77;;;;;;;;;;6254010;23;20466;-91
2023/12/07 07:07:14;;;;;;;6.83;6.10;;;;;;;;;;6225188;22;20386;-91
2023/12/07 07:09:40;;;;;;;6.27;4.63;;;;;;;;;;6228296;22;20543;-93
2023/12/07 07:12:06;;;;;;;10.33;6.43;;;;;;;;;;6250539;22;20405;-89
2023/12/07 07:14:32;;;;;;;7.13;5.83;;;;;;;;;;6263147;22;20930;-92
2023/12/07 07:16:58;;;;;;;7.60;5.50;;;;;;;;;;6257516;22;20366;-92
2023/12/07 07:19:24;;;;;;;7.73;6.97;;;;;;;;;;6260229;22;20389;-91
2023/12/07 07:21:50;;;;;;;6.90;5.00;;;;;;;;;;6256570;22;20381;-91
2023/12/07 07:24:16;;;;;;;8.43;5.27;;;;;;;;;;6282545;22;20376;-91
2023/12/07 07:26:42;;;;;;;10.70;5.17;;;;;;;;;;6279470;22;20369;-91
2023/12/07 07:29:08;;;;;;;10.17;7.80;;;;;;;;;;6305990;22;20416;-92
2023/12/07 07:31:36;;;;;;;13.83;6.13;;;;;;;;;;6290265;22;20372;-92
2023/12/07 07:34:02;;;;;;;7.30;5.57;;;;;;;;;;6292781;22;20471;-90
2023/12/07 07:36:28;;;;;;;9.60;5.37;;;;;;;;;;6291088;22;20632;-91
2023/12/07 07:38:55;;;;;;;5.90;5.30;;;;;;;;;;6291584;22;20890;-91
2023/12/07 07:41:20;;;;;;;8.07;5.90;;;;;;;;;;6289704;22;20437;-91
2023/12/07 07:43:46;;;;;;;9.13;6.40;;;;;;;;;;6320052;22;20387;-92
2023/12/07 07:46:12;;;;;;;13.73;5.70;;;;;;;;;;6290896;22;20398;-91
2023/12/07 07:48:39;;;;;;;11.40;5.50;;;;;;;;;;6292259;22;20563;-92
2023/12/07 07:51:05;;;;;;;8.37;5.57;;;;;;;;;;6345696;22;20701;-91
2023/12/07 07:53:31;;;;;;;6.80;5.80;;;;;;;;;;6318957;22;20368;-91
2023/12/07 07:55:57;;;;;;;7.83;5.00;;;;;;;;;;6323589;22;20371;-91
2023/12/07 07:58:23;;;;;;;12.90;6.87;;;;;;;;;;6318940;22;20375;-91
2023/12/07 08:00:50;;;;;;;11.23;6.97;;;;;;;;;;6321867;22;20424;-89
2023/12/07 08:03:16;;;;;;;9.90;6.00;;;;;;;;;;6319299;22;20384;-90
2023/12/07 08:05:42;;;;;;;7.97;5.57;;;;;;;;;;6347614;22;20364;-91
2023/12/07 08:08:09;;;;;;;13.20;6.40;;;;;;;;;;6319707;22;20439;-92
2023/12/07 08:10:34;;;;;;;21.20;8.33;;;;;;;;;;6321885;22;20409;-90
2023/12/07 08:13:00;;;;;;;10.77;6.57;;;;;;;;;;6317955;22;20375;-89
2023/12/07 08:15:26;;;;;;;7.10;5.83;;;;;;;;;;6347955;22;20390;-91
2023/12/07 08:17:52;;;;;;;9.97;6.40;;;;;;;;;;6318096;22;20375;-90
2023/12/07 08:20:18;;;;;;;7.50;5.53;;;;;;;;;;6320439;22;20375;-88
2023/12/07 08:22:44;;;;;;;8.23;5.37;;;;;;;;;;6317960;22;20880;-88
2023/12/07 08:25:11;;;;;;;8.30;5.10;;;;;;;;;;6347599;22;20411;-91
2023/12/07 08:27:37;;;;;;;8.33;4.70;;;;;;;;;;6322762;22;20414;-91
2023/12/07 08:30:03;;;;;;;10.20;5.60;;;;;;;;;;6319194;22;20367;-89
2023/12/07 08:32:29;;;;;;;8.77;5.60;;;;;;;;;;6322267;22;20466;-91
2023/12/07 08:34:55;;;;;;;10.00;5.73;;;;;;;;;;6319518;22;20355;-90
2023/12/07 08:37:21;;;;;;;8.60;6.30;;;;;;;;;;6321731;22;20397;-91
2023/12/07 08:39:48;;;;;;;9.37;5.10;;;;;;;;;;6318650;22;20382;-91
2023/12/07 08:42:14;;;;;;;14.53;7.23;;;;;;;;;;6318775;22;20434;-90
2023/12/07 08:44:40;;;;;;;7.20;5.67;;;;;;;;;;6319595;22;20375;-90
2023/12/07 08:47:06;;;;;;;14.33;7.17;;;;;;;;;;6350484;22;20388;-91
2023/12/07 08:49:32;;;;;;;12.60;5.57;;;;;;;;;;6344588;22;20493;-91
2023/12/07 08:51:58;;;;;;;7.50;6.40;;;;;;;;;;6320807;22;20359;-91
2023/12/07 08:54:28;;;;;;;11.27;6.47;;;;;;;;;;6320559;22;20411;-96
2023/12/07 08:56:53;;;;;;;22.43;6.90;;;;;;;;;;6348110;22;20440;-90
2023/12/07 08:59:20;;;;;;;10.23;6.27;;;;;;;;;;6317978;22;20474;-91
2023/12/07 09:01:46;;;;;;;7.87;5.47;;;;;;;;;;6322544;22;20435;-91
2023/12/07 09:04:12;;;;;;;9.30;6.93;;;;;;;;;;6319646;22;20397;-90
2023/12/07 09:06:38;;;;;;;10.67;6.97;;;;;;;;;;6321624;22;20387;-91
2023/12/07 09:09:04;;;;;;;7.37;5.37;;;;;;;;;;6346997;22;20411;-90
2023/12/07 09:11:30;;;;;;;11.20;6.50;;;;;;;;;;6321806;22;20447;-92
2023/12/07 09:13:56;;;;;;;15.53;6.87;;;;;;;;;;6322178;22;20367;-93
2023/12/07 09:16:22;;;;;;;11.47;7.87;;;;;;;;;;6321001;22;20379;-92
2023/12/07 09:18:48;;;;;;;9.13;6.13;;;;;;;;;;6322018;22;20390;-90
2023/12/07 09:21:14;;;;;;;12.63;7.50;;;;;;;;;;6319612;22;20379;-93
2023/12/07 09:23:40;;;;;;;6.50;5.90;;;;;;;;;;6345826;22;20380;-92
2023/12/07 09:26:07;;;;;;;11.87;5.70;;;;;;;;;;6319651;22;20367;-91
2023/12/07 09:28:33;;;;;;;8.37;7.30;;;;;;;;;;6318989;22;20415;-92
2023/12/07 09:30:59;;;;;;;8.13;5.77;;;;;;;;;;6316896;22;20436;-91
2023/12/07 09:33:25;;;;;;;7.17;6.03;;;;;;;;;;6318655;22;20448;-91
2023/12/07 09:35:51;;;;;;;7.20;5.70;;;;;;;;;;6318217;22;20736;-92
2023/12/07 09:38:17;;;;;;;11.20;6.10;;;;;;;;;;6318580;22;20382;-91
2023/12/07 09:40:43;;;;;;;7.10;5.73;;;;;;;;;;6319424;22;20394;-90
2023/12/07 09:43:09;;;;;;;8.83;6.07;;;;;;;;;;6316067;22;20405;-90
2023/12/07 09:45:35;;;;;;;7.60;5.23;;;;;;;;;;6342657;22;20383;-90
2023/12/07 09:48:02;;;;;;;8.10;6.20;;;;;;;;;;6322102;22;20467;-91
2023/12/07 09:50:28;;;;;;;6.57;5.30;;;;;;;;;;6346631;22;20395;-91
2023/12/07 09:52:56;;;;;;;8.80;5.00;;;;;;;;;;6322271;22;20370;-91
2023/12/07 09:55:22;;;;;;;5.77;4.67;;;;;;;;;;6321943;22;20752;-91
2023/12/07 09:57:48;;;;;;;8.43;5.37;;;;;;;;;;6323181;22;20421;-91
2023/12/07 10:00:14;;;;;;;8.33;6.37;;;;;;;;;;6322614;22;20383;-92
2023/12/07 10:02:45;;;;;;;8.37;5.00;;;;;;;;;;6321792;22;20382;-92
2023/12/07 10:05:13;;;;;;;12.67;7.10;;;;;;;;;;6321106;22;20376;-90
2023/12/07 10:07:40;;;;;;;6.33;4.17;;;;;;;;;;6322987;22;20371;-91
2023/12/07 10:10:06;;;;;;;10.40;4.40;;;;;;;;;;6323515;22;20371;-91
2023/12/07 10:12:34;;;;;;;12.60;6.03;;;;;;;;;;6321893;22;20403;-92
2023/12/07 10:15:02;;;;;;;6.90;4.87;;;;;;;;;;6322623;22;20379;-92
2023/12/07 10:17:49;;;;;;;13.90;5.37;;;;;;;;;;6321940;22;20375;-92
2023/12/07 10:20:23;;;;;;;8.77;6.70;;;;;;;;;;6349590;22;20372;-90
2023/12/07 10:22:49;;;;;;;7.77;5.50;;;;;;;;;;6322801;22;20379;-92
2023/12/07 10:25:15;;;;;;;6.10;4.67;;;;;;;;;;6322316;22;20859;-92
2023/12/07 10:27:42;;;;;;;6.20;5.13;;;;;;;;;;6323243;22;20375;-91
2023/12/07 10:30:10;;;;;;;7.67;4.37;;;;;;;;;;6323424;22;20394;-92
2023/12/07 10:32:37;;;;;;;6.37;4.30;;;;;;;;;;6322179;22;20380;-89
2023/12/07 10:35:03;;;;;;;4.93;4.43;;;;;;;;;;6320913;22;20375;-92
2023/12/07 10:37:33;;;;;;;7.00;4.80;;;;;;;;;;6320651;22;20402;-91
2023/12/07 10:39:59;;;;;;;4.50;4.10;;;;;;;;;;6321538;22;20443;-91
2023/12/07 10:42:25;;;;;;;8.30;4.20;;;;;;;;;;6348319;22;20387;-90
2023/12/07 10:44:51;;;;;;;4.70;4.17;;;;;;;;;;6344234;22;20375;-91
2023/12/07 10:47:18;;;;;;;5.13;4.53;;;;;;;;;;6320912;22;20827;-91
2023/12/07 10:49:44;;;;;;;6.33;3.90;;;;;;;;;;6319525;22;20496;-91
2023/12/07 10:52:12;;;;;;;8.47;3.80;;;;;;;;;;6321114;22;20390;-91
2023/12/07 10:54:42;;;;;;;8.67;4.73;;;;;;;;;;6323552;22;20383;-92
2023/12/07 10:57:08;;;;;;;6.80;4.30;;;;;;;;;;6320686;22;20376;-89
2023/12/07 10:59:33;;;;;;;5.23;4.37;;;;;;;;;;6321841;22;20795;-90
2023/12/07 11:02:00;;;;;;;9.67;5.20;;;;;;;;;;6320794;22;20374;-90
2023/12/07 11:04:31;;;;;;;6.60;4.50;;;;;;;;;;6319172;22;20383;-92
2023/12/07 11:07:00;;;;;;;7.50;5.00;;;;;;;;;;6322481;22;20383;-91
2023/12/07 11:09:28;;;;;;;6.20;4.40;;;;;;;;;;6349862;22;20479;-92
2023/12/07 11:11:54;;;;;;;5.57;4.23;;;;;;;;;;6323606;22;20380;-92
2023/12/07 11:14:20;;;;;;;6.27;5.27;;;;;;;;;;6345895;22;20379;-92
2023/12/07 11:16:47;;;;;;;5.73;3.97;;;;;;;;;;6320234;22;20386;-92
2023/12/07 11:19:44;;;;;;;5.50;4.00;;;;;;;;;;6319163;22;20380;-91
2023/12/07 11:22:12;;;;;;;5.73;4.17;;;;;;;;;;6345638;22;20878;-92
2023/12/07 11:24:38;;;;;;;4.27;3.13;;;;;;;;;;6322019;22;20371;-92
2023/12/07 11:27:04;;;;;;;3.80;3.20;;;;;;;;;;6319095;22;20478;-93
2023/12/07 11:29:30;;;;;;;6.10;5.37;;;;;;;;;;6321157;22;20412;-92
2023/12/07 11:31:57;;;;;;;4.50;3.73;;;;;;;;;;6321072;22;20387;-92
2023/12/07 11:34:39;;;;;;;5.70;4.10;;;;;;;;;;6319214;22;20376;-90
2023/12/07 11:37:05;;;;;;;4.70;3.47;;;;;;;;;;6319096;22;20397;-90
2023/12/07 11:39:38;;;;;;;3.13;2.60;;;;;;;;;;6319454;22;20393;-92
2023/12/07 11:42:08;;;;;;;5.60;3.67;;;;;;;;;;6344716;22;20443;-91
2023/12/07 11:44:37;;;;;;;5.93;2.80;;;;;;;;;;6323506;22;20382;-90
2023/12/07 11:47:04;;;;;;;3.00;2.70;;;;;;;;;;6319415;22;20758;-91
2023/12/07 11:49:33;;;;;;;3.43;2.93;;;;;;;;;;6321432;22;20411;-91
2023/12/07 11:51:59;;;;;;;3.93;3.20;;;;;;;;;;6315394;22;20371;-91
2023/12/07 11:54:26;;;;;;;5.83;3.20;;;;;;;;;;6325169;22;20395;-91
2023/12/07 11:56:57;;;;;;;3.83;2.50;;;;;;;;;;6319728;22;20709;-91
2023/12/07 11:59:25;;;;;;;3.10;2.63;;;;;;;;;;6324296;22;20803;-90
2023/12/07 12:01:51;;;;;;;2.53;2.33;;;;;;;;;;6320126;22;20372;-92
2023/12/07 12:04:18;;;;;;;3.37;3.07;;;;;;;;;;6322003;22;20415;-91
2023/12/07 12:06:47;;;;;;;2.83;2.50;;;;;;;;;;6320943;22;20396;-93
2023/12/07 12:09:16;;;;;;;2.97;2.67;;;;;;;;;;6321205;22;20427;-91
2023/12/07 12:11:48;;;;;;;3.70;2.40;;;;;;;;;;6320690;22;20383;-91
2023/12/07 12:14:16;;;;;;;2.73;2.53;;;;;;;;;;6318674;22;20383;-91
2023/12/07 12:16:42;;;;;;;5.10;2.33;;;;;;;;;;6319837;22;20401;-91
2023/12/07 12:19:08;;;;;;;3.87;3.23;;;;;;;;;;6317420;22;20356;-93
2023/12/07 12:21:35;;;;;;;2.07;1.90;;;;;;;;;;6318867;22;20375;-92
2023/12/07 12:24:01;;;;;;;6.17;2.70;;;;;;;;;;6319261;22;20356;-92
2023/12/07 12:26:27;;;;;;;4.80;2.60;;;;;;;;;;6320199;22;20383;-93
2023/12/07 12:28:53;;;;;;;4.00;3.13;;;;;;;;;;6320793;22;20475;-92
2023/12/07 12:31:19;;;;;;;4.53;2.57;;;;;;;;;;6323890;22;20410;-93
2023/12/07 12:33:45;;;;;;;3.50;2.20;;;;;;;;;;6347817;22;20370;-94
2023/12/07 12:36:11;;;;;;;3.47;2.37;;;;;;;;;;6323930;22;20368;-92
2023/12/07 12:38:39;;;;;;;2.30;2.10;;;;;;;;;;6347096;22;20404;-92
2023/12/07 12:41:05;;;;;;;7.70;3.27;;;;;;;;;;6321080;22;20446;-90
2023/12/07 12:43:34;;;;;;;3.63;2.90;;;;;;;;;;6319875;22;20396;-92
2023/12/07 12:46:01;;;;;;;11.70;3.17;;;;;;;;;;6321075;22;20440;-91
2023/12/07 12:48:27;;;;;;;10.60;3.00;;;;;;;;;;6320142;22;20419;-91
2023/12/07 12:50:53;;;;;;;2.70;2.50;;;;;;;;;;6321283;22;20382;-91
2023/12/07 12:53:19;;;;;;;5.10;3.10;;;;;;;;;;6345891;22;20352;-91
2023/12/07 12:55:46;;;;;;;4.20;2.70;;;;;;;;;;6347026;22;20375;-90
2023/12/07 12:58:13;;;;;;;4.70;3.33;;;;;;;;;;6319690;22;20403;-90
2023/12/07 13:00:39;;;;;;;5.17;3.10;;;;;;;;;;6324652;22;20487;-90
2023/12/07 13:03:13;;;;;;;4.43;2.93;;;;;;;;;;6317758;22;20971;-89
2023/12/07 13:05:39;;;;;;;4.73;2.80;;;;;;;;;;6320450;22;20407;-91
2023/12/07 13:08:05;;;;;;;4.30;3.20;;;;;;;;;;6344117;22;20620;-91
2023/12/07 13:10:31;;;;;;;3.67;2.60;;;;;;;;;;6319440;22;20374;-92
2023/12/07 13:12:57;;;;;;;4.53;4.00;;;;;;;;;;6316628;22;20407;-91
2023/12/07 13:15:25;;;;;;;3.30;2.30;;;;;;;;;;6317580;22;20389;-90
2023/12/07 13:17:51;;;;;;;4.47;3.43;;;;;;;;;;6344952;22;20367;-93
2023/12/07 13:20:17;;;;;;;4.30;3.70;;;;;;;;;;6320904;22;20418;-92
2023/12/07 13:22:43;;;;;;;4.50;3.07;;;;;;;;;;6320535;22;20375;-92
2023/12/07 13:25:09;;;;;;;5.83;3.10;;;;;;;;;;6348937;22;20379;-92
2023/12/07 13:27:35;;;;;;;5.07;3.00;;;;;;;;;;6319852;22;20383;-92
2023/12/07 13:30:05;;;;;;;3.63;3.03;;;;;;;;;;6322313;22;20386;-92
2023/12/07 13:32:31;;;;;;;4.87;3.57;;;;;;;;;;6320978;22;20414;-90
2023/12/07 13:34:57;;;;;;;4.30;2.93;;;;;;;;;;6324354;22;20383;-91
2023/12/07 13:37:23;;;;;;;6.90;3.77;;;;;;;;;;6322016;22;20379;-91
2023/12/07 13:39:55;;;;;;;5.27;3.90;;;;;;;;;;6319275;22;21157;-92
2023/12/07 13:42:26;;;;;;;4.53;3.00;;;;;;;;;;6323033;22;20419;-91
2023/12/07 13:44:52;;;;;;;4.33;3.20;;;;;;;;;;6319972;22;20450;-91
2023/12/07 13:47:20;;;;;;;4.97;3.97;;;;;;;;;;6347093;22;20374;-91
2023/12/07 13:49:46;;;;;;;9.67;4.33;;;;;;;;;;6322177;22;21003;-91
2023/12/07 13:52:12;;;;;;;12.00;3.90;;;;;;;;;;6321560;22;20758;-91
2023/12/07 13:54:39;;;;;;;4.80;3.50;;;;;;;;;;6320650;22;20414;-90
2023/12/07 13:57:05;;;;;;;5.07;3.53;;;;;;;;;;6322553;22;20838;-92
2023/12/07 13:59:31;;;;;;;8.10;3.70;;;;;;;;;;6319482;22;20395;-91
2023/12/07 14:01:57;;;;;;;4.37;3.87;;;;;;;;;;6323184;22;20383;-91
2023/12/07 14:04:23;;;;;;;13.47;4.17;;;;;;;;;;6321900;22;20391;-91
2023/12/07 14:06:51;;;;;;;7.80;3.60;;;;;;;;;;6323626;22;20391;-93
2023/12/07 14:09:17;;;;;;;2.93;2.73;;;;;;;;;;6346757;22;20434;-91
2023/12/07 14:11:44;;;;;;;5.47;3.93;;;;;;;;;;6349825;22;20386;-91
2023/12/07 14:14:13;;;;;;;4.57;3.20;;;;;;;;;;6322974;22;20727;-91
2023/12/07 14:16:39;;;;;;;3.83;3.33;;;;;;;;;;6323198;22;20383;-92
2023/12/07 14:19:05;;;;;;;2.80;2.10;;;;;;;;;;6320291;22;20607;-91
2023/12/07 14:21:31;;;;;;;3.33;3.03;;;;;;;;;;6324480;22;20375;-92
2023/12/07 14:23:58;;;;;;;3.60;3.23;;;;;;;;;;6321795;22;20363;-92
2023/12/07 14:26:24;;;;;;;6.87;4.30;;;;;;;;;;6321901;22;20394;-92
2023/12/07 14:28:50;;;;;;;2.47;1.80;;;;;;;;;;6320461;22;20455;-91
2023/12/07 14:31:16;;;;;;;3.00;2.37;;;;;;;;;;6319811;22;20418;-91
2023/12/07 14:33:44;;;;;;;12.53;2.63;;;;;;;;;;6317619;22;20379;-91
2023/12/07 14:36:11;;;;;;;4.00;1.97;;;;;;;;;;6350864;22;20364;-90
2023/12/07 14:38:37;;;;;;;3.57;2.03;;;;;;;;;;6320564;22;20454;-90
2023/12/07 14:41:06;;;;;;;1.87;1.67;;;;;;;;;;6321294;22;20417;-91
2023/12/07 14:43:42;;;;;;;2.90;1.87;;;;;;;;;;6320822;22;20403;-90
2023/12/07 14:46:08;;;;;;;3.07;2.07;;;;;;;;;;6352819;22;20516;-91
2023/12/07 14:48:34;;;;;;;4.03;1.37;;;;;;;;;;6324563;22;20480;-92
2023/12/07 14:51:21;;;;;;;2.70;1.80;;;;;;;;;;6332482;22;20912;-94
2023/12/07 14:53:47;;;;;;;5.73;2.00;;;;;;;;;;6327049;22;20382;-91
2023/12/07 14:56:16;;;;;;;4.10;2.10;;;;;;;;;;6351989;22;20368;-91
2023/12/07 14:58:42;;;;;;;2.67;1.73;;;;;;;;;;6325930;22;20395;-91
2023/12/07 15:01:08;;;;;;;4.43;2.20;;;;;;;;;;6322375;22;20417;-90
2023/12/07 15:03:35;;;;;;;2.13;1.90;;;;;;;;;;6322493;22;20368;-91
2023/12/07 15:06:01;;;;;;;2.60;1.93;;;;;;;;;;6323717;22;20529;-89
2023/12/07 15:08:27;;;;;;;2.30;1.90;;;;;;;;;;6291249;22;20485;-91
2023/12/07 15:10:55;;;;;;;5.00;1.87;;;;;;;;;;6288266;22;20376;-89
2023/12/07 15:13:21;;;;;;;3.30;1.73;;;;;;;;;;6315146;22;20395;-91
2023/12/07 15:15:48;;;;;;;5.03;1.83;;;;;;;;;;6314981;22;20422;-90
2023/12/07 15:18:14;;;;;;;1.97;1.83;;;;;;;;;;6291059;22;20903;-91
2023/12/07 15:20:40;;;;;;;2.03;1.50;;;;;;;;;;6287740;22;20384;-89
2023/12/07 15:23:07;;;;;;;1.63;1.47;;;;;;;;;;6290093;22;20372;-89
2023/12/07 15:25:33;;;;;;;4.47;2.50;;;;;;;;;;6288831;22;20428;-90
2023/12/07 15:27:59;;;;;;;2.63;2.43;;;;;;;;;;6288839;22;20430;-90